Cetus Star — 9HYP7 — position and weather

sailwx.info

Track history (hours):
 
Tides and Currents Weather Stations Pressure Air Temp Water Temp Dewpoint Dewpoint Depression Visibility Wind Speed Wind Dir Waves Ship Positions

Cetus Star

Last reported at 2018-Mar-19 21:42 UTC. Time now 2018-Jun-18 11:40 UTC.
Position S 30°29' E 031°04'.
Warning: this ship's position is months out of date.

Length 175 m; draft 10.1 m.

Type: Cargo ship. MMSI: 215720000.

Date/timePositionNaut miles runAvg speedWind from/ knotsBaromVisibWave heightAir tempDewpointWater temp
2018-Mar-19 21:42S 30°29' E 031°04'211.1
2018-Mar-19 21:31S 30°27' E 031°05'710.7
2018-Mar-19 20:50S 30°20' E 031°07'310.8
2018-Mar-19 20:31S 30°17' E 031°08'611.2
2018-Mar-19 20:01S 30°11' E 031°10'611.4
2018-Mar-19 19:31S 30°05' E 031°11'612.0
2018-Mar-19 19:01S 30°00' E 031°14'612.2
2018-Mar-19 18:31S 29°55' E 031°18'612.1
2018-Mar-19 18:00S 29°51' E 031°23'4 7.9
2018-Mar-19 17:30S 29°47' E 031°26'5 9.7
2018-Mar-19 17:01S 29°49' E 031°20'5 9.9
2018-Mar-19 16:30S 29°51' E 031°15'3 6.6
2018-Mar-19 15:59S 29°47' E 031°16'2 3.3
2018-Mar-19 15:31S 29°48' E 031°14'2 3.4
2018-Mar-19 15:00S 29°49' E 031°13'2 3.4
2018-Mar-19 14:30S 29°50' E 031°11'1 2.3
2018-Mar-19 14:01S 29°50' E 031°10'2 4.2
2018-Mar-19 13:30S 29°50' E 031°08'3 6.9
2018-Mar-19 13:00S 29°52' E 031°04'2 4.1
2018-Mar-19 12:30S 29°53' E 031°02'0 0.0
2018-Mar-19 12:00S 29°53' E 031°02'0 0.0
2018-Mar-19 11:30S 29°53' E 031°02'0 0.0
2018-Mar-19 11:00S 29°53' E 031°02'0 0.0
2018-Mar-19 10:30S 29°53' E 031°02'0 0.0
2018-Mar-19 10:00S 29°53' E 031°02'0 0.0
2018-Mar-19 09:30S 29°53' E 031°02'0 0.0
2018-Mar-19 09:00S 29°53' E 031°02'0 0.0
2018-Mar-19 08:30S 29°53' E 031°02'0 0.0
2018-Mar-19 08:00S 29°53' E 031°02'0 0.0
2018-Mar-19 07:30S 29°53' E 031°02'0 0.0
2018-Mar-19 07:00S 29°53' E 031°02'0 0.0
2018-Mar-19 06:30S 29°53' E 031°02'0 0.0
2018-Mar-19 06:00S 29°53' E 031°02'0 0.0
2018-Mar-19 05:30S 29°53' E 031°02'0 0.0
2018-Mar-19 05:00S 29°53' E 031°02'0 0.0
2018-Mar-19 04:30S 29°53' E 031°02'0 0.0
2018-Mar-19 04:00S 29°53' E 031°02'0 0.0
2018-Mar-19 03:30S 29°53' E 031°02'0 0.0
2018-Mar-19 03:00S 29°53' E 031°02'0 0.0
2018-Mar-19 02:30S 29°53' E 031°02'0 0.0
2018-Mar-19 02:00S 29°53' E 031°02'0 0.0
2018-Mar-19 01:30S 29°53' E 031°02'0 0.0
2018-Mar-19 01:00S 29°53' E 031°02'0 0.0
2018-Mar-19 00:30S 29°53' E 031°02'0 0.0
2018-Mar-19 00:00S 29°53' E 031°02'0 0.0
2018-Mar-18 23:30S 29°53' E 031°02'0 0.0
2018-Mar-18 23:00S 29°53' E 031°02'0 0.0
2018-Mar-18 22:30S 29°53' E 031°02'0 0.0
2018-Mar-18 22:00S 29°53' E 031°02'0 0.0
2018-Mar-18 21:30S 29°53' E 031°02'0 0.0
2018-Mar-18 21:00S 29°53' E 031°02'0 0.0
2018-Mar-18 20:30S 29°53' E 031°02'0 0.0
2018-Mar-18 20:00S 29°53' E 031°02'0 0.0
2018-Mar-18 19:30S 29°53' E 031°02'0 0.0
2018-Mar-18 19:00S 29°53' E 031°02'0 0.0
2018-Mar-18 18:30S 29°53' E 031°02'0 0.0
2018-Mar-18 18:00S 29°53' E 031°02'0 0.0
2018-Mar-18 17:30S 29°53' E 031°02'0 0.0
2018-Mar-18 17:00S 29°53' E 031°02'0 0.0
2018-Mar-18 16:30S 29°53' E 031°02'0 0.0
2018-Mar-18 16:00S 29°53' E 031°02'0 0.0
2018-Mar-18 15:30S 29°53' E 031°02'0 0.0
2018-Mar-18 15:00S 29°53' E 031°02'0 0.0
2018-Mar-18 14:30S 29°53' E 031°02'0 0.0
2018-Mar-18 14:00S 29°53' E 031°02'0 0.0
2018-Mar-18 13:30S 29°53' E 031°02'0 0.0
2018-Mar-18 13:00S 29°53' E 031°02'0 0.0
2018-Mar-18 12:24S 29°53' E 031°02'0 0.0
2018-Mar-18 12:00S 29°53' E 031°02'0 0.0
2018-Mar-18 11:30S 29°53' E 031°02'0 0.0
2018-Mar-18 11:00S 29°53' E 031°02'0 0.0
2018-Mar-18 10:30S 29°53' E 031°02'0 0.0
2018-Mar-18 10:00S 29°53' E 031°02'0 0.0
2018-Mar-18 09:30S 29°53' E 031°02'0 0.0
2018-Mar-18 09:00S 29°53' E 031°02'0 0.0
2018-Mar-18 08:30S 29°53' E 031°02'0 0.0
2018-Mar-18 08:00S 29°53' E 031°02'0 0.0
2018-Mar-18 07:30S 29°53' E 031°02'0 0.0
2018-Mar-18 07:00S 29°53' E 031°02'0 0.0
2018-Mar-18 06:30S 29°53' E 031°02'0 0.0
2018-Mar-18 06:00S 29°53' E 031°02'0 0.0
2018-Mar-18 05:30S 29°53' E 031°02'0 0.0
2018-Mar-18 05:00S 29°53' E 031°02'0 0.0
2018-Mar-18 04:30S 29°53' E 031°02'0 0.0
2018-Mar-18 04:00S 29°53' E 031°02'0 0.0
2018-Mar-18 03:30S 29°53' E 031°02'0 0.0
2018-Mar-18 03:00S 29°53' E 031°02'0 0.0
2018-Mar-18 02:30S 29°53' E 031°02'0 0.0
2018-Mar-18 02:00S 29°53' E 031°02'0 0.0
2018-Mar-18 01:30S 29°53' E 031°02'0 0.0
2018-Mar-18 01:00S 29°53' E 031°02'0 0.0
2018-Mar-18 00:30S 29°53' E 031°02'0 0.0
2018-Mar-18 00:00S 29°53' E 031°02'0 0.0
2018-Mar-17 23:30S 29°53' E 031°02'0 0.0
2018-Mar-17 23:00S 29°53' E 031°02'0 0.0
2018-Mar-17 22:30S 29°53' E 031°02'0 0.0
2018-Mar-17 22:00S 29°53' E 031°02'0 0.0
2018-Mar-17 21:30S 29°53' E 031°02'0 0.0
2018-Mar-17 21:00S 29°53' E 031°02'0 0.0
2018-Mar-17 20:30S 29°53' E 031°02'0 0.0
2018-Mar-17 20:00S 29°53' E 031°02'0 0.0
2018-Mar-17 19:30S 29°53' E 031°02'0 0.0
2018-Mar-17 19:00S 29°53' E 031°02'0 0.0
2018-Mar-17 18:30S 29°53' E 031°02'0 0.0
2018-Mar-17 18:00S 29°53' E 031°02'0 0.0
2018-Mar-17 17:30S 29°53' E 031°02'0 0.0
2018-Mar-17 17:00S 29°53' E 031°02'0 0.0
2018-Mar-17 16:30S 29°53' E 031°02'0 0.0
2018-Mar-17 16:00S 29°53' E 031°02'0 0.0
2018-Mar-17 15:30S 29°53' E 031°02'0 0.0
2018-Mar-17 15:00S 29°53' E 031°02'0 0.0
2018-Mar-17 14:30S 29°53' E 031°02'0 0.0
2018-Mar-17 14:00S 29°53' E 031°02'0 0.0
2018-Mar-17 13:30S 29°53' E 031°02'0 0.0
2018-Mar-17 13:00S 29°53' E 031°02'0 0.0
2018-Mar-17 12:30S 29°53' E 031°02'0 0.0
2018-Mar-17 12:00S 29°53' E 031°02'0 0.0
2018-Mar-17 11:30S 29°53' E 031°02'0 0.0
2018-Mar-17 11:00S 29°53' E 031°02'0 0.0
2018-Mar-17 10:30S 29°53' E 031°02'0 0.0
2018-Mar-17 10:00S 29°53' E 031°02'0 0.0
2018-Mar-17 09:30S 29°53' E 031°02'0 0.0
2018-Mar-17 09:00S 29°53' E 031°02'0 0.0
2018-Mar-17 08:30S 29°53' E 031°02'0 0.0
2018-Mar-17 08:00S 29°53' E 031°02'0 0.0
2018-Mar-17 07:30S 29°53' E 031°02'0 0.0
2018-Mar-17 07:00S 29°53' E 031°02'0 0.0
2018-Mar-17 06:30S 29°53' E 031°02'0 0.0
2018-Mar-17 06:00S 29°53' E 031°02'0 0.0
2018-Mar-17 05:30S 29°53' E 031°02'0 0.0
2018-Mar-17 05:00S 29°53' E 031°02'0 0.0
2018-Mar-17 04:30S 29°53' E 031°02'0 0.0
2018-Mar-17 04:00S 29°53' E 031°02'0 0.0
2018-Mar-17 03:24S 29°53' E 031°02'0 0.0
2018-Mar-17 03:00S 29°53' E 031°02'0 0.0
2018-Mar-17 02:30S 29°53' E 031°02'0 0.0
2018-Mar-17 02:00S 29°53' E 031°02'0 0.0
2018-Mar-17 01:30S 29°53' E 031°02'0 0.0
2018-Mar-17 01:00S 29°53' E 031°02'0 0.0
2018-Mar-17 00:30S 29°53' E 031°02'0 0.0
2018-Mar-17 00:00S 29°53' E 031°02'0 0.0
2018-Mar-16 23:30S 29°53' E 031°02'0 0.0
2018-Mar-16 23:00S 29°53' E 031°02'0 0.0
2018-Mar-16 22:30S 29°53' E 031°02'0 0.0
2018-Mar-16 21:54S 29°53' E 031°02'0 0.0
2018-Mar-16 21:30S 29°53' E 031°02'0 0.0
2018-Mar-16 21:00S 29°53' E 031°02'0 0.0
2018-Mar-16 20:30S 29°53' E 031°02'0 0.0
2018-Mar-16 20:00S 29°53' E 031°02'0 0.0
2018-Mar-16 19:30S 29°53' E 031°02'0 0.0
2018-Mar-16 19:00S 29°53' E 031°02'0 0.0
2018-Mar-16 18:30S 29°53' E 031°02'0 0.0
2018-Mar-16 18:00S 29°53' E 031°02'0 0.0
2018-Mar-16 17:30S 29°53' E 031°02'0 0.0
2018-Mar-16 17:00S 29°53' E 031°02'0 0.0
2018-Mar-16 16:30S 29°53' E 031°02'0 0.0
2018-Mar-16 16:00S 29°53' E 031°02'0 0.0
2018-Mar-16 15:30S 29°53' E 031°02'0 0.0
2018-Mar-16 15:00S 29°53' E 031°02'0 0.0
2018-Mar-16 14:30S 29°53' E 031°02'0 0.0
2018-Mar-16 14:00S 29°53' E 031°02'0 0.0
2018-Mar-16 13:30S 29°53' E 031°02'0 0.0
2018-Mar-16 13:00S 29°53' E 031°02'0 0.0
2018-Mar-16 12:30S 29°53' E 031°02'0 0.0
2018-Mar-16 12:00S 29°53' E 031°02'0 0.0
2018-Mar-16 11:30S 29°53' E 031°02'0 0.0
2018-Mar-16 11:00S 29°53' E 031°02'0 0.0
2018-Mar-16 10:30S 29°53' E 031°02'0 0.0
2018-Mar-16 10:00S 29°53' E 031°02'0 0.0
2018-Mar-16 09:30S 29°53' E 031°02'0 0.0
2018-Mar-16 09:00S 29°53' E 031°02'0 0.0
2018-Mar-16 08:30S 29°53' E 031°02'0 0.0
2018-Mar-16 08:00S 29°53' E 031°02'0 0.0
2018-Mar-16 07:30S 29°53' E 031°02'0 0.0
2018-Mar-16 07:00S 29°53' E 031°02'0 0.0
2018-Mar-16 06:30S 29°53' E 031°02'0 0.0
2018-Mar-16 06:00S 29°53' E 031°02'0 0.0
2018-Mar-16 05:30S 29°53' E 031°02'0 0.0
2018-Mar-16 05:00S 29°53' E 031°02'0 0.0
2018-Mar-16 04:30S 29°53' E 031°02'0 0.0
2018-Mar-16 04:00S 29°53' E 031°02'0 0.0
2018-Mar-16 03:30S 29°53' E 031°02'0 0.0
2018-Mar-16 03:00S 29°53' E 031°02'0 0.0
2018-Mar-16 02:30S 29°53' E 031°02'0 0.0
2018-Mar-16 02:00S 29°53' E 031°02'0 0.0
2018-Mar-16 01:30S 29°53' E 031°02'0 0.0
2018-Mar-16 01:00S 29°53' E 031°02'0 0.0
2018-Mar-16 00:30S 29°53' E 031°02'0 0.0
2018-Mar-16 00:00S 29°53' E 031°02'0 0.0
2018-Mar-15 23:30S 29°53' E 031°02'0 0.0
2018-Mar-15 23:00S 29°53' E 031°02'0 0.0
2018-Mar-15 22:30S 29°53' E 031°02'0 0.0
2018-Mar-15 22:00S 29°53' E 031°02'0 0.0
2018-Mar-15 21:30S 29°53' E 031°02'0 0.0
2018-Mar-15 21:00S 29°53' E 031°02'0 0.0
2018-Mar-15 20:30S 29°53' E 031°02'0 0.0
2018-Mar-15 20:00S 29°53' E 031°02'0 0.0
2018-Mar-15 19:30S 29°53' E 031°02'0 0.0
2018-Mar-15 19:00S 29°53' E 031°02'0 0.0
2018-Mar-15 18:30S 29°53' E 031°02'0 0.0
2018-Mar-15 18:00S 29°53' E 031°02'0 0.0
2018-Mar-15 17:30S 29°53' E 031°02'0 0.0
2018-Mar-15 17:00S 29°53' E 031°02'0 0.0
2018-Mar-15 16:30S 29°53' E 031°02'0 0.0
2018-Mar-15 16:00S 29°53' E 031°02'0 0.0
2018-Mar-15 15:30S 29°53' E 031°02'0 0.0
2018-Mar-15 15:00S 29°53' E 031°02'0 0.0
2018-Mar-15 14:30S 29°53' E 031°02'0 0.0
2018-Mar-15 14:00S 29°53' E 031°02'0 0.0
2018-Mar-15 13:30S 29°53' E 031°02'0 0.0
2018-Mar-15 13:00S 29°53' E 031°02'0 0.0
2018-Mar-15 12:24S 29°53' E 031°02'0 0.0
2018-Mar-15 12:00S 29°53' E 031°02'0 0.0
2018-Mar-15 11:30S 29°53' E 031°02'0 0.0
2018-Mar-15 10:48S 29°53' E 031°02'0 0.0
2018-Mar-15 10:30S 29°53' E 031°02'0 0.0
2018-Mar-15 10:00S 29°53' E 031°02'0 0.0
2018-Mar-15 09:24S 29°53' E 031°02'0 0.0
2018-Mar-15 09:00S 29°53' E 031°02'0 0.0
2018-Mar-15 08:30S 29°53' E 031°02'0 0.0
2018-Mar-15 08:00S 29°53' E 031°02'0 0.0
2018-Mar-15 07:30S 29°53' E 031°02'0 0.0
2018-Mar-15 07:00S 29°53' E 031°02'0 0.0
2018-Mar-15 06:30S 29°53' E 031°02'0 0.0
2018-Mar-15 06:00S 29°53' E 031°02'0 0.0
2018-Mar-15 05:30S 29°53' E 031°02'0 0.0
2018-Mar-15 05:00S 29°53' E 031°02'0 0.0
2018-Mar-15 04:30S 29°53' E 031°02'0 0.0
2018-Mar-15 04:00S 29°53' E 031°02'0 0.0
2018-Mar-15 03:30S 29°53' E 031°02'0 0.0
2018-Mar-15 03:00S 29°53' E 031°02'0 0.0
2018-Mar-15 02:30S 29°53' E 031°02'0 0.0
2018-Mar-15 02:00S 29°53' E 031°02'0 0.0
2018-Mar-15 01:30S 29°53' E 031°02'0 0.0
2018-Mar-15 01:00S 29°53' E 031°02'0 0.0
2018-Mar-15 00:30S 29°53' E 031°02'0 0.0
2018-Mar-15 00:00S 29°53' E 031°02'0 0.0
2018-Mar-14 23:30S 29°53' E 031°02'0 0.0
2018-Mar-14 23:00S 29°53' E 031°02'0 0.0
2018-Mar-14 22:30S 29°53' E 031°02'0 0.0
2018-Mar-14 21:54S 29°53' E 031°02'0 0.0
2018-Mar-14 21:30S 29°53' E 031°02'0 0.0
2018-Mar-14 21:00S 29°53' E 031°02'0 0.0
2018-Mar-14 20:30S 29°53' E 031°02'0 0.0
2018-Mar-14 20:00S 29°53' E 031°02'0 0.0
2018-Mar-14 19:30S 29°53' E 031°02'0 0.0
2018-Mar-14 19:00S 29°53' E 031°02'0 0.0
2018-Mar-14 18:30S 29°53' E 031°02'0 0.0
2018-Mar-14 18:00S 29°53' E 031°02'0 0.0
2018-Mar-14 17:30S 29°53' E 031°02'0 0.0
2018-Mar-14 17:00S 29°53' E 031°02'0 0.0
2018-Mar-14 16:30S 29°53' E 031°02'0 0.0
2018-Mar-14 16:00S 29°53' E 031°02'0 0.0
2018-Mar-14 15:30S 29°53' E 031°02'0 0.0
2018-Mar-14 15:00S 29°53' E 031°02'0 0.0
2018-Mar-14 14:30S 29°53' E 031°02'0 0.0
2018-Mar-14 14:00S 29°53' E 031°02'0 0.0
2018-Mar-14 13:30S 29°53' E 031°02'0 0.0
2018-Mar-14 13:00S 29°53' E 031°02'0 0.0
2018-Mar-14 12:30S 29°53' E 031°02'0 0.0
2018-Mar-14 12:00S 29°53' E 031°02'0 0.0
2018-Mar-14 11:30S 29°53' E 031°02'0 0.0
2018-Mar-14 11:00S 29°53' E 031°02'0 0.0
2018-Mar-14 10:30S 29°53' E 031°02'0 0.0
2018-Mar-14 09:54S 29°53' E 031°02'0 0.0
2018-Mar-14 09:30S 29°53' E 031°02'0 0.0
2018-Mar-14 08:54S 29°53' E 031°02'0 0.0
2018-Mar-14 08:30S 29°53' E 031°02'0 0.0
2018-Mar-14 08:00S 29°53' E 031°02'0 0.0
2018-Mar-14 07:30S 29°53' E 031°02'0 0.0
2018-Mar-14 07:00S 29°53' E 031°02'0 0.0
2018-Mar-14 06:30S 29°53' E 031°02'0 0.0
2018-Mar-14 06:00S 29°53' E 031°02'0 0.0
2018-Mar-14 05:30S 29°53' E 031°02'0 0.0
2018-Mar-14 05:00S 29°53' E 031°02'0 0.0
2018-Mar-14 04:30S 29°53' E 031°02'0 0.0
2018-Mar-14 04:00S 29°53' E 031°02'0 0.0
2018-Mar-14 03:30S 29°53' E 031°02'0 0.0
2018-Mar-14 03:00S 29°53' E 031°02'0 0.0
2018-Mar-14 02:30S 29°53' E 031°02'0 0.0
2018-Mar-14 02:00S 29°53' E 031°02'0 0.0
2018-Mar-14 01:30S 29°53' E 031°02'0 0.0
2018-Mar-14 01:00S 29°53' E 031°02'0 0.0
2018-Mar-14 00:30S 29°53' E 031°02'0 0.0
2018-Mar-14 00:00S 29°53' E 031°02'0 0.0
2018-Mar-13 23:30S 29°53' E 031°02'0 0.0
2018-Mar-13 23:00S 29°53' E 031°02'0 0.0
2018-Mar-13 22:30S 29°53' E 031°02'0 0.0
2018-Mar-13 21:54S 29°53' E 031°02'0 0.0
2018-Mar-13 21:30S 29°53' E 031°02'0 0.0
2018-Mar-13 21:00S 29°53' E 031°02'0 0.0
2018-Mar-13 20:30S 29°53' E 031°02'0 0.0
2018-Mar-13 20:00S 29°53' E 031°02'0 0.0
2018-Mar-13 19:30S 29°53' E 031°02'0 0.0
2018-Mar-13 19:00S 29°53' E 031°02'0 0.0
2018-Mar-13 18:30S 29°53' E 031°02'0 0.0
2018-Mar-13 18:00S 29°53' E 031°02'0 0.0
2018-Mar-13 17:30S 29°53' E 031°02'0 0.0
2018-Mar-13 17:00S 29°53' E 031°02'0 0.0
2018-Mar-13 16:30S 29°53' E 031°02'0 0.0
2018-Mar-13 16:00S 29°53' E 031°02'0 0.0
2018-Mar-13 15:24S 29°53' E 031°02'0 0.0
2018-Mar-13 15:00S 29°53' E 031°02'0 0.0
2018-Mar-13 14:30S 29°53' E 031°02'0 0.0
2018-Mar-13 14:00S 29°53' E 031°02'0 0.0
2018-Mar-13 13:30S 29°53' E 031°02'0 0.0
2018-Mar-13 13:00S 29°53' E 031°02'0 0.0
2018-Mar-13 12:30S 29°53' E 031°02'0 0.0
2018-Mar-13 12:00S 29°53' E 031°02'0 0.0
2018-Mar-13 11:30S 29°53' E 031°02'0 0.0
2018-Mar-13 11:00S 29°53' E 031°02'0 0.0
2018-Mar-13 10:30S 29°53' E 031°02'0 0.0
2018-Mar-13 10:00S 29°53' E 031°02'0 0.0
2018-Mar-13 09:30S 29°53' E 031°02'0 0.0
2018-Mar-13 09:00S 29°53' E 031°02'0 0.0
2018-Mar-13 08:30S 29°53' E 031°02'0 0.0
2018-Mar-13 08:00S 29°53' E 031°02'0 0.0
2018-Mar-13 07:30S 29°53' E 031°02'0 0.0
2018-Mar-13 07:00S 29°53' E 031°02'0 0.0
2018-Mar-13 06:30S 29°53' E 031°02'0 0.0
2018-Mar-13 06:00S 29°53' E 031°02'0 0.0
2018-Mar-13 05:30S 29°53' E 031°02'0 0.0
2018-Mar-13 05:00S 29°53' E 031°02'0 0.0
2018-Mar-13 04:30S 29°53' E 031°02'0 0.0
2018-Mar-13 04:00S 29°53' E 031°02'0 0.0
2018-Mar-13 03:30S 29°53' E 031°02'0 0.0
2018-Mar-13 03:00S 29°53' E 031°02'0 0.0
2018-Mar-13 02:30S 29°53' E 031°02'0 0.0
2018-Mar-13 02:00S 29°53' E 031°02'0 0.0
2018-Mar-13 01:30S 29°53' E 031°02'0 0.0
2018-Mar-13 01:00S 29°53' E 031°02'0 0.0
2018-Mar-13 00:30S 29°53' E 031°02'0 0.0
2018-Mar-13 00:00S 29°53' E 031°02'0 0.0
2018-Mar-12 23:30S 29°53' E 031°02'0 0.0
2018-Mar-12 23:00S 29°53' E 031°02'0 0.0
2018-Mar-12 22:30S 29°53' E 031°02'0 0.0
2018-Mar-12 22:00S 29°53' E 031°02'0 0.0
2018-Mar-12 21:30S 29°53' E 031°02'0 0.0
2018-Mar-12 21:00S 29°53' E 031°02'0 0.0
2018-Mar-12 20:30S 29°53' E 031°02'0 0.0
2018-Mar-12 20:00S 29°53' E 031°02'0 0.0
2018-Mar-12 19:30S 29°53' E 031°02'0 0.0
2018-Mar-12 18:59S 29°53' E 031°02'0 0.0
2018-Mar-12 18:30S 29°53' E 031°02'0 0.0
2018-Mar-12 18:00S 29°53' E 031°02'0 1.0
2018-Mar-12 17:30S 29°53' E 031°03'3 5.7
2018-Mar-12 17:00S 29°50' E 031°05'2 5.0
2018-Mar-12 16:30S 29°49' E 031°07'4 7.4
2018-Mar-12 16:00S 29°48' E 031°11'1 1.8
2018-Mar-12 15:30S 29°49' E 031°12'1 1.5
2018-Mar-12 15:00S 29°50' E 031°12'1 1.6
2018-Mar-12 14:30S 29°50' E 031°12'1 1.6
2018-Mar-12 14:00S 29°51' E 031°13'0 0.5
2018-Mar-12 13:30S 29°51' E 031°13'3 6.3
2018-Mar-12 13:00S 29°48' E 031°14'510.1
2018-Mar-12 12:30S 29°45' E 031°18'612.3
2018-Mar-12 12:00S 29°43' E 031°25'612.3
2018-Mar-12 11:30S 29°40' E 031°31'612.1
2018-Mar-12 11:00S 29°38' E 031°38'612.6
2018-Mar-12 10:30S 29°36' E 031°45'1413.6
2018-Mar-12 09:27S 29°30' E 031°60'  
Track history (hours):
 
Tides and Currents Weather Stations Pressure Air Temp Water Temp Dewpoint Dewpoint Depression Visibility Wind Speed Wind Dir Waves Ship Positions

Cetus Star

Last reported at 2018-Mar-19 21:42 UTC. Time now 2018-Jun-18 11:40 UTC.
Position S 30°29' E 031°04'.
Warning: this ship's position is months out of date.

Length 175 m; draft 10.1 m.

Type: Cargo ship. MMSI: 215720000.

Date/timePositionNaut miles runAvg speedWind from/ knotsBaromVisibWave heightAir tempDewpointWater temp
2018-Mar-19 21:42S 30°29' E 031°04'211.1
2018-Mar-19 21:31S 30°27' E 031°05'710.7
2018-Mar-19 20:50S 30°20' E 031°07'310.8
2018-Mar-19 20:31S 30°17' E 031°08'611.2
2018-Mar-19 20:01S 30°11' E 031°10'611.4
2018-Mar-19 19:31S 30°05' E 031°11'612.0
2018-Mar-19 19:01S 30°00' E 031°14'612.2
2018-Mar-19 18:31S 29°55' E 031°18'612.1
2018-Mar-19 18:00S 29°51' E 031°23'4 7.9
2018-Mar-19 17:30S 29°47' E 031°26'5 9.7
2018-Mar-19 17:01S 29°49' E 031°20'5 9.9
2018-Mar-19 16:30S 29°51' E 031°15'3 6.6
2018-Mar-19 15:59S 29°47' E 031°16'2 3.3
2018-Mar-19 15:31S 29°48' E 031°14'2 3.4
2018-Mar-19 15:00S 29°49' E 031°13'2 3.4
2018-Mar-19 14:30S 29°50' E 031°11'1 2.3
2018-Mar-19 14:01S 29°50' E 031°10'2 4.2
2018-Mar-19 13:30S 29°50' E 031°08'3 6.9
2018-Mar-19 13:00S 29°52' E 031°04'2 4.1
2018-Mar-19 12:30S 29°53' E 031°02'0 0.0
2018-Mar-19 12:00S 29°53' E 031°02'0 0.0
2018-Mar-19 11:30S 29°53' E 031°02'0 0.0
2018-Mar-19 11:00S 29°53' E 031°02'0 0.0
2018-Mar-19 10:30S 29°53' E 031°02'0 0.0
2018-Mar-19 10:00S 29°53' E 031°02'0 0.0
2018-Mar-19 09:30S 29°53' E 031°02'0 0.0
2018-Mar-19 09:00S 29°53' E 031°02'0 0.0
2018-Mar-19 08:30S 29°53' E 031°02'0 0.0
2018-Mar-19 08:00S 29°53' E 031°02'0 0.0
2018-Mar-19 07:30S 29°53' E 031°02'0 0.0
2018-Mar-19 07:00S 29°53' E 031°02'0 0.0
2018-Mar-19 06:30S 29°53' E 031°02'0 0.0
2018-Mar-19 06:00S 29°53' E 031°02'0 0.0
2018-Mar-19 05:30S 29°53' E 031°02'0 0.0
2018-Mar-19 05:00S 29°53' E 031°02'0 0.0
2018-Mar-19 04:30S 29°53' E 031°02'0 0.0
2018-Mar-19 04:00S 29°53' E 031°02'0 0.0
2018-Mar-19 03:30S 29°53' E 031°02'0 0.0
2018-Mar-19 03:00S 29°53' E 031°02'0 0.0
2018-Mar-19 02:30S 29°53' E 031°02'0 0.0
2018-Mar-19 02:00S 29°53' E 031°02'0 0.0
2018-Mar-19 01:30S 29°53' E 031°02'0 0.0
2018-Mar-19 01:00S 29°53' E 031°02'0 0.0
2018-Mar-19 00:30S 29°53' E 031°02'0 0.0
2018-Mar-19 00:00S 29°53' E 031°02'0 0.0
2018-Mar-18 23:30S 29°53' E 031°02'0 0.0
2018-Mar-18 23:00S 29°53' E 031°02'0 0.0
2018-Mar-18 22:30S 29°53' E 031°02'0 0.0
2018-Mar-18 22:00S 29°53' E 031°02'0 0.0
2018-Mar-18 21:30S 29°53' E 031°02'0 0.0
2018-Mar-18 21:00S 29°53' E 031°02'0 0.0
2018-Mar-18 20:30S 29°53' E 031°02'0 0.0
2018-Mar-18 20:00S 29°53' E 031°02'0 0.0
2018-Mar-18 19:30S 29°53' E 031°02'0 0.0
2018-Mar-18 19:00S 29°53' E 031°02'0 0.0
2018-Mar-18 18:30S 29°53' E 031°02'0 0.0
2018-Mar-18 18:00S 29°53' E 031°02'0 0.0
2018-Mar-18 17:30S 29°53' E 031°02'0 0.0
2018-Mar-18 17:00S 29°53' E 031°02'0 0.0
2018-Mar-18 16:30S 29°53' E 031°02'0 0.0
2018-Mar-18 16:00S 29°53' E 031°02'0 0.0
2018-Mar-18 15:30S 29°53' E 031°02'0 0.0
2018-Mar-18 15:00S 29°53' E 031°02'0 0.0
2018-Mar-18 14:30S 29°53' E 031°02'0 0.0
2018-Mar-18 14:00S 29°53' E 031°02'0 0.0
2018-Mar-18 13:30S 29°53' E 031°02'0 0.0
2018-Mar-18 13:00S 29°53' E 031°02'0 0.0
2018-Mar-18 12:24S 29°53' E 031°02'0 0.0
2018-Mar-18 12:00S 29°53' E 031°02'0 0.0
2018-Mar-18 11:30S 29°53' E 031°02'0 0.0
2018-Mar-18 11:00S 29°53' E 031°02'0 0.0
2018-Mar-18 10:30S 29°53' E 031°02'0 0.0
2018-Mar-18 10:00S 29°53' E 031°02'0 0.0
2018-Mar-18 09:30S 29°53' E 031°02'0 0.0
2018-Mar-18 09:00S 29°53' E 031°02'0 0.0
2018-Mar-18 08:30S 29°53' E 031°02'0 0.0
2018-Mar-18 08:00S 29°53' E 031°02'0 0.0
2018-Mar-18 07:30S 29°53' E 031°02'0 0.0
2018-Mar-18 07:00S 29°53' E 031°02'0 0.0
2018-Mar-18 06:30S 29°53' E 031°02'0 0.0
2018-Mar-18 06:00S 29°53' E 031°02'0 0.0
2018-Mar-18 05:30S 29°53' E 031°02'0 0.0
2018-Mar-18 05:00S 29°53' E 031°02'0 0.0
2018-Mar-18 04:30S 29°53' E 031°02'0 0.0
2018-Mar-18 04:00S 29°53' E 031°02'0 0.0
2018-Mar-18 03:30S 29°53' E 031°02'0 0.0
2018-Mar-18 03:00S 29°53' E 031°02'0 0.0
2018-Mar-18 02:30S 29°53' E 031°02'0 0.0
2018-Mar-18 02:00S 29°53' E 031°02'0 0.0
2018-Mar-18 01:30S 29°53' E 031°02'0 0.0
2018-Mar-18 01:00S 29°53' E 031°02'0 0.0
2018-Mar-18 00:30S 29°53' E 031°02'0 0.0
2018-Mar-18 00:00S 29°53' E 031°02'0 0.0
2018-Mar-17 23:30S 29°53' E 031°02'0 0.0
2018-Mar-17 23:00S 29°53' E 031°02'0 0.0
2018-Mar-17 22:30S 29°53' E 031°02'0 0.0
2018-Mar-17 22:00S 29°53' E 031°02'0 0.0
2018-Mar-17 21:30S 29°53' E 031°02'0 0.0
2018-Mar-17 21:00S 29°53' E 031°02'0 0.0
2018-Mar-17 20:30S 29°53' E 031°02'0 0.0
2018-Mar-17 20:00S 29°53' E 031°02'0 0.0
2018-Mar-17 19:30S 29°53' E 031°02'0 0.0
2018-Mar-17 19:00S 29°53' E 031°02'0 0.0
2018-Mar-17 18:30S 29°53' E 031°02'0 0.0
2018-Mar-17 18:00S 29°53' E 031°02'0 0.0
2018-Mar-17 17:30S 29°53' E 031°02'0 0.0
2018-Mar-17 17:00S 29°53' E 031°02'0 0.0
2018-Mar-17 16:30S 29°53' E 031°02'0 0.0
2018-Mar-17 16:00S 29°53' E 031°02'0 0.0
2018-Mar-17 15:30S 29°53' E 031°02'0 0.0
2018-Mar-17 15:00S 29°53' E 031°02'0 0.0
2018-Mar-17 14:30S 29°53' E 031°02'0 0.0
2018-Mar-17 14:00S 29°53' E 031°02'0 0.0
2018-Mar-17 13:30S 29°53' E 031°02'0 0.0
2018-Mar-17 13:00S 29°53' E 031°02'0 0.0
2018-Mar-17 12:30S 29°53' E 031°02'0 0.0
2018-Mar-17 12:00S 29°53' E 031°02'0 0.0
2018-Mar-17 11:30S 29°53' E 031°02'0 0.0
2018-Mar-17 11:00S 29°53' E 031°02'0 0.0
2018-Mar-17 10:30S 29°53' E 031°02'0 0.0
2018-Mar-17 10:00S 29°53' E 031°02'0 0.0
2018-Mar-17 09:30S 29°53' E 031°02'0 0.0
2018-Mar-17 09:00S 29°53' E 031°02'0 0.0
2018-Mar-17 08:30S 29°53' E 031°02'0 0.0
2018-Mar-17 08:00S 29°53' E 031°02'0 0.0
2018-Mar-17 07:30S 29°53' E 031°02'0 0.0
2018-Mar-17 07:00S 29°53' E 031°02'0 0.0
2018-Mar-17 06:30S 29°53' E 031°02'0 0.0
2018-Mar-17 06:00S 29°53' E 031°02'0 0.0
2018-Mar-17 05:30S 29°53' E 031°02'0 0.0
2018-Mar-17 05:00S 29°53' E 031°02'0 0.0
2018-Mar-17 04:30S 29°53' E 031°02'0 0.0
2018-Mar-17 04:00S 29°53' E 031°02'0 0.0
2018-Mar-17 03:24S 29°53' E 031°02'0 0.0
2018-Mar-17 03:00S 29°53' E 031°02'0 0.0
2018-Mar-17 02:30S 29°53' E 031°02'0 0.0
2018-Mar-17 02:00S 29°53' E 031°02'0 0.0
2018-Mar-17 01:30S 29°53' E 031°02'0 0.0
2018-Mar-17 01:00S 29°53' E 031°02'0 0.0
2018-Mar-17 00:30S 29°53' E 031°02'0 0.0
2018-Mar-17 00:00S 29°53' E 031°02'0 0.0
2018-Mar-16 23:30S 29°53' E 031°02'0 0.0
2018-Mar-16 23:00S 29°53' E 031°02'0 0.0
2018-Mar-16 22:30S 29°53' E 031°02'0 0.0
2018-Mar-16 21:54S 29°53' E 031°02'0 0.0
2018-Mar-16 21:30S 29°53' E 031°02'0 0.0
2018-Mar-16 21:00S 29°53' E 031°02'0 0.0
2018-Mar-16 20:30S 29°53' E 031°02'0 0.0
2018-Mar-16 20:00S 29°53' E 031°02'0 0.0
2018-Mar-16 19:30S 29°53' E 031°02'0 0.0
2018-Mar-16 19:00S 29°53' E 031°02'0 0.0
2018-Mar-16 18:30S 29°53' E 031°02'0 0.0
2018-Mar-16 18:00S 29°53' E 031°02'0 0.0
2018-Mar-16 17:30S 29°53' E 031°02'0 0.0
2018-Mar-16 17:00S 29°53' E 031°02'0 0.0
2018-Mar-16 16:30S 29°53' E 031°02'0 0.0
2018-Mar-16 16:00S 29°53' E 031°02'0 0.0
2018-Mar-16 15:30S 29°53' E 031°02'0 0.0
2018-Mar-16 15:00S 29°53' E 031°02'0 0.0
2018-Mar-16 14:30S 29°53' E 031°02'0 0.0
2018-Mar-16 14:00S 29°53' E 031°02'0 0.0
2018-Mar-16 13:30S 29°53' E 031°02'0 0.0
2018-Mar-16 13:00S 29°53' E 031°02'0 0.0
2018-Mar-16 12:30S 29°53' E 031°02'0 0.0
2018-Mar-16 12:00S 29°53' E 031°02'0 0.0
2018-Mar-16 11:30S 29°53' E 031°02'0 0.0
2018-Mar-16 11:00S 29°53' E 031°02'0 0.0
2018-Mar-16 10:30S 29°53' E 031°02'0 0.0
2018-Mar-16 10:00S 29°53' E 031°02'0 0.0
2018-Mar-16 09:30S 29°53' E 031°02'0 0.0
2018-Mar-16 09:00S 29°53' E 031°02'0 0.0
2018-Mar-16 08:30S 29°53' E 031°02'0 0.0
2018-Mar-16 08:00S 29°53' E 031°02'0 0.0
2018-Mar-16 07:30S 29°53' E 031°02'0 0.0
2018-Mar-16 07:00S 29°53' E 031°02'0 0.0
2018-Mar-16 06:30S 29°53' E 031°02'0 0.0
2018-Mar-16 06:00S 29°53' E 031°02'0 0.0
2018-Mar-16 05:30S 29°53' E 031°02'0 0.0
2018-Mar-16 05:00S 29°53' E 031°02'0 0.0
2018-Mar-16 04:30S 29°53' E 031°02'0 0.0
2018-Mar-16 04:00S 29°53' E 031°02'0 0.0
2018-Mar-16 03:30S 29°53' E 031°02'0 0.0
2018-Mar-16 03:00S 29°53' E 031°02'0 0.0
2018-Mar-16 02:30S 29°53' E 031°02'0 0.0
2018-Mar-16 02:00S 29°53' E 031°02'0 0.0
2018-Mar-16 01:30S 29°53' E 031°02'0 0.0
2018-Mar-16 01:00S 29°53' E 031°02'0 0.0
2018-Mar-16 00:30S 29°53' E 031°02'0 0.0
2018-Mar-16 00:00S 29°53' E 031°02'0 0.0
2018-Mar-15 23:30S 29°53' E 031°02'0 0.0
2018-Mar-15 23:00S 29°53' E 031°02'0 0.0
2018-Mar-15 22:30S 29°53' E 031°02'0 0.0
2018-Mar-15 22:00S 29°53' E 031°02'0 0.0
2018-Mar-15 21:30S 29°53' E 031°02'0 0.0
2018-Mar-15 21:00S 29°53' E 031°02'0 0.0
2018-Mar-15 20:30S 29°53' E 031°02'0 0.0
2018-Mar-15 20:00S 29°53' E 031°02'0 0.0
2018-Mar-15 19:30S 29°53' E 031°02'0 0.0
2018-Mar-15 19:00S 29°53' E 031°02'0 0.0
2018-Mar-15 18:30S 29°53' E 031°02'0 0.0
2018-Mar-15 18:00S 29°53' E 031°02'0 0.0
2018-Mar-15 17:30S 29°53' E 031°02'0 0.0
2018-Mar-15 17:00S 29°53' E 031°02'0 0.0
2018-Mar-15 16:30S 29°53' E 031°02'0 0.0
2018-Mar-15 16:00S 29°53' E 031°02'0 0.0
2018-Mar-15 15:30S 29°53' E 031°02'0 0.0
2018-Mar-15 15:00S 29°53' E 031°02'0 0.0
2018-Mar-15 14:30S 29°53' E 031°02'0 0.0
2018-Mar-15 14:00S 29°53' E 031°02'0 0.0
2018-Mar-15 13:30S 29°53' E 031°02'0 0.0
2018-Mar-15 13:00S 29°53' E 031°02'0 0.0
2018-Mar-15 12:24S 29°53' E 031°02'0 0.0
2018-Mar-15 12:00S 29°53' E 031°02'0 0.0
2018-Mar-15 11:30S 29°53' E 031°02'0 0.0
2018-Mar-15 10:48S 29°53' E 031°02'0 0.0
2018-Mar-15 10:30S 29°53' E 031°02'0 0.0
2018-Mar-15 10:00S 29°53' E 031°02'0 0.0
2018-Mar-15 09:24S 29°53' E 031°02'0 0.0
2018-Mar-15 09:00S 29°53' E 031°02'0 0.0
2018-Mar-15 08:30S 29°53' E 031°02'0 0.0
2018-Mar-15 08:00S 29°53' E 031°02'0 0.0
2018-Mar-15 07:30S 29°53' E 031°02'0 0.0
2018-Mar-15 07:00S 29°53' E 031°02'0 0.0
2018-Mar-15 06:30S 29°53' E 031°02'0 0.0
2018-Mar-15 06:00S 29°53' E 031°02'0 0.0
2018-Mar-15 05:30S 29°53' E 031°02'0 0.0
2018-Mar-15 05:00S 29°53' E 031°02'0 0.0
2018-Mar-15 04:30S 29°53' E 031°02'0 0.0
2018-Mar-15 04:00S 29°53' E 031°02'0 0.0
2018-Mar-15 03:30S 29°53' E 031°02'0 0.0
2018-Mar-15 03:00S 29°53' E 031°02'0 0.0
2018-Mar-15 02:30S 29°53' E 031°02'0 0.0
2018-Mar-15 02:00S 29°53' E 031°02'0 0.0
2018-Mar-15 01:30S 29°53' E 031°02'0 0.0
2018-Mar-15 01:00S 29°53' E 031°02'0 0.0
2018-Mar-15 00:30S 29°53' E 031°02'0 0.0
2018-Mar-15 00:00S 29°53' E 031°02'0 0.0
2018-Mar-14 23:30S 29°53' E 031°02'0 0.0
2018-Mar-14 23:00S 29°53' E 031°02'0 0.0
2018-Mar-14 22:30S 29°53' E 031°02'0 0.0
2018-Mar-14 21:54S 29°53' E 031°02'0 0.0
2018-Mar-14 21:30S 29°53' E 031°02'0 0.0
2018-Mar-14 21:00S 29°53' E 031°02'0 0.0
2018-Mar-14 20:30S 29°53' E 031°02'0 0.0
2018-Mar-14 20:00S 29°53' E 031°02'0 0.0
2018-Mar-14 19:30S 29°53' E 031°02'0 0.0
2018-Mar-14 19:00S 29°53' E 031°02'0 0.0
2018-Mar-14 18:30S 29°53' E 031°02'0 0.0
2018-Mar-14 18:00S 29°53' E 031°02'0 0.0
2018-Mar-14 17:30S 29°53' E 031°02'0 0.0
2018-Mar-14 17:00S 29°53' E 031°02'0 0.0
2018-Mar-14 16:30S 29°53' E 031°02'0 0.0
2018-Mar-14 16:00S 29°53' E 031°02'0 0.0
2018-Mar-14 15:30S 29°53' E 031°02'0 0.0
2018-Mar-14 15:00S 29°53' E 031°02'0 0.0
2018-Mar-14 14:30S 29°53' E 031°02'0 0.0
2018-Mar-14 14:00S 29°53' E 031°02'0 0.0
2018-Mar-14 13:30S 29°53' E 031°02'0 0.0
2018-Mar-14 13:00S 29°53' E 031°02'0 0.0
2018-Mar-14 12:30S 29°53' E 031°02'0 0.0
2018-Mar-14 12:00S 29°53' E 031°02'0 0.0
2018-Mar-14 11:30S 29°53' E 031°02'0 0.0
2018-Mar-14 11:00S 29°53' E 031°02'0 0.0
2018-Mar-14 10:30S 29°53' E 031°02'0 0.0
2018-Mar-14 09:54S 29°53' E 031°02'0 0.0
2018-Mar-14 09:30S 29°53' E 031°02'0 0.0
2018-Mar-14 08:54S 29°53' E 031°02'0 0.0
2018-Mar-14 08:30S 29°53' E 031°02'0 0.0
2018-Mar-14 08:00S 29°53' E 031°02'0 0.0
2018-Mar-14 07:30S 29°53' E 031°02'0 0.0
2018-Mar-14 07:00S 29°53' E 031°02'0 0.0
2018-Mar-14 06:30S 29°53' E 031°02'0 0.0
2018-Mar-14 06:00S 29°53' E 031°02'0 0.0
2018-Mar-14 05:30S 29°53' E 031°02'0 0.0
2018-Mar-14 05:00S 29°53' E 031°02'0 0.0
2018-Mar-14 04:30S 29°53' E 031°02'0 0.0
2018-Mar-14 04:00S 29°53' E 031°02'0 0.0
2018-Mar-14 03:30S 29°53' E 031°02'0 0.0
2018-Mar-14 03:00S 29°53' E 031°02'0 0.0
2018-Mar-14 02:30S 29°53' E 031°02'0 0.0
2018-Mar-14 02:00S 29°53' E 031°02'0 0.0
2018-Mar-14 01:30S 29°53' E 031°02'0 0.0
2018-Mar-14 01:00S 29°53' E 031°02'0 0.0
2018-Mar-14 00:30S 29°53' E 031°02'0 0.0
2018-Mar-14 00:00S 29°53' E 031°02'0 0.0
2018-Mar-13 23:30S 29°53' E 031°02'0 0.0
2018-Mar-13 23:00S 29°53' E 031°02'0 0.0
2018-Mar-13 22:30S 29°53' E 031°02'0 0.0
2018-Mar-13 21:54S 29°53' E 031°02'0 0.0
2018-Mar-13 21:30S 29°53' E 031°02'0 0.0
2018-Mar-13 21:00S 29°53' E 031°02'0 0.0
2018-Mar-13 20:30S 29°53' E 031°02'0 0.0
2018-Mar-13 20:00S 29°53' E 031°02'0 0.0
2018-Mar-13 19:30S 29°53' E 031°02'0 0.0
2018-Mar-13 19:00S 29°53' E 031°02'0 0.0
2018-Mar-13 18:30S 29°53' E 031°02'0 0.0
2018-Mar-13 18:00S 29°53' E 031°02'0 0.0
2018-Mar-13 17:30S 29°53' E 031°02'0 0.0
2018-Mar-13 17:00S 29°53' E 031°02'0 0.0
2018-Mar-13 16:30S 29°53' E 031°02'0 0.0
2018-Mar-13 16:00S 29°53' E 031°02'0 0.0
2018-Mar-13 15:24S 29°53' E 031°02'0 0.0
2018-Mar-13 15:00S 29°53' E 031°02'0 0.0
2018-Mar-13 14:30S 29°53' E 031°02'0 0.0
2018-Mar-13 14:00S 29°53' E 031°02'0 0.0
2018-Mar-13 13:30S 29°53' E 031°02'0 0.0
2018-Mar-13 13:00S 29°53' E 031°02'0 0.0
2018-Mar-13 12:30S 29°53' E 031°02'0 0.0
2018-Mar-13 12:00S 29°53' E 031°02'0 0.0
2018-Mar-13 11:30S 29°53' E 031°02'0 0.0
2018-Mar-13 11:00S 29°53' E 031°02'0 0.0
2018-Mar-13 10:30S 29°53' E 031°02'0 0.0
2018-Mar-13 10:00S 29°53' E 031°02'0 0.0
2018-Mar-13 09:30S 29°53' E 031°02'0 0.0
2018-Mar-13 09:00S 29°53' E 031°02'0 0.0
2018-Mar-13 08:30S 29°53' E 031°02'0 0.0
2018-Mar-13 08:00S 29°53' E 031°02'0 0.0
2018-Mar-13 07:30S 29°53' E 031°02'0 0.0
2018-Mar-13 07:00S 29°53' E 031°02'0 0.0
2018-Mar-13 06:30S 29°53' E 031°02'0 0.0
2018-Mar-13 06:00S 29°53' E 031°02'0 0.0
2018-Mar-13 05:30S 29°53' E 031°02'0 0.0
2018-Mar-13 05:00S 29°53' E 031°02'0 0.0
2018-Mar-13 04:30S 29°53' E 031°02'0 0.0
2018-Mar-13 04:00S 29°53' E 031°02'0 0.0
2018-Mar-13 03:30S 29°53' E 031°02'0 0.0
2018-Mar-13 03:00S 29°53' E 031°02'0 0.0
2018-Mar-13 02:30S 29°53' E 031°02'0 0.0
2018-Mar-13 02:00S 29°53' E 031°02'0 0.0
2018-Mar-13 01:30S 29°53' E 031°02'0 0.0
2018-Mar-13 01:00S 29°53' E 031°02'0 0.0
2018-Mar-13 00:30S 29°53' E 031°02'0 0.0
2018-Mar-13 00:00S 29°53' E 031°02'0 0.0
2018-Mar-12 23:30S 29°53' E 031°02'0 0.0
2018-Mar-12 23:00S 29°53' E 031°02'0 0.0
2018-Mar-12 22:30S 29°53' E 031°02'0 0.0
2018-Mar-12 22:00S 29°53' E 031°02'0 0.0
2018-Mar-12 21:30S 29°53' E 031°02'0 0.0
2018-Mar-12 21:00S 29°53' E 031°02'0 0.0
2018-Mar-12 20:30S 29°53' E 031°02'0 0.0
2018-Mar-12 20:00S 29°53' E 031°02'0 0.0
2018-Mar-12 19:30S 29°53' E 031°02'0 0.0
2018-Mar-12 18:59S 29°53' E 031°02'0 0.0
2018-Mar-12 18:30S 29°53' E 031°02'0 0.0
2018-Mar-12 18:00S 29°53' E 031°02'0 1.0
2018-Mar-12 17:30S 29°53' E 031°03'3 5.7
2018-Mar-12 17:00S 29°50' E 031°05'2 5.0
2018-Mar-12 16:30S 29°49' E 031°07'4 7.4
2018-Mar-12 16:00S 29°48' E 031°11'1 1.8
2018-Mar-12 15:30S 29°49' E 031°12'1 1.5
2018-Mar-12 15:00S 29°50' E 031°12'1 1.6
2018-Mar-12 14:30S 29°50' E 031°12'1 1.6
2018-Mar-12 14:00S 29°51' E 031°13'0 0.5
2018-Mar-12 13:30S 29°51' E 031°13'3 6.3
2018-Mar-12 13:00S 29°48' E 031°14'510.1
2018-Mar-12 12:30S 29°45' E 031°18'612.3
2018-Mar-12 12:00S 29°43' E 031°25'612.3
2018-Mar-12 11:30S 29°40' E 031°31'612.1
2018-Mar-12 11:00S 29°38' E 031°38'612.6
2018-Mar-12 10:30S 29°36' E 031°45'1413.6
2018-Mar-12 09:27S 29°30' E 031°60'  

Dump ship's entire track history